Temp: 4.4°C   Baro: 1017.3mb
  Wind: 0.0mph   Dir: NNW (342°)
  Rain: 0.0mm (0.0mm/hr)
  Solar: 0W/m2  Hum: 83%

Historic data

Bath Spa Weather Station Historical Data
Daily Summary for January 8, 2021 Units:  Metric    English   Both
Daily Weekly Monthly Yearly Custom
  High: Low: Average:
Temperature: 12.2 °C 2.3 °C 8.2 °C
Dew Point: 11.5 °C 1.8 °C 7.5 °C
Humidity: 94% 87% 92%
Wind Speed: 6.8km/h 0km/h 1.1km/h
Wind Gust: 14.5km/h - -
Wind- - WSW
Pressure: 1025.3 hPa 1023.2 hPa -
Precipitation: 0 mm    
Historical Graphs
 
 
Tabular Data for January 8, 2021
Time Temperature Dew Point Pressure Wind Wind Speed Wind Gust Humidity Rainfall Rate (Hourly) solar
00:04 4.3 °C 3.5 °C 1024.9 hPa NW 1.9 km/h 3.2 km/h 91% 0 mm 0 W/m2
00:09 4.2 °C 3.3 °C 1024.9 hPa Calm   3.2 km/h 91% 0 mm 0 W/m2
00:14 4.1 °C 3.3 °C 1024.9 hPa Calm     91% 0 mm 0 W/m2
00:19 4.1 °C 3.3 °C 1024.9 hPa Calm     91% 0 mm 0 W/m2
00:24 4.1 °C 3.3 °C 1024.9 hPa NW 1.3 km/h 4.8 km/h 91% 0 mm 0 W/m2
00:29 3.9 °C 3.1 °C 1024.9 hPa NW 1.4 km/h 4.8 km/h 91% 0 mm 0 W/m2
00:34 3.9 °C 3.2 °C 1024.9 hPa NW 1.9 km/h 3.2 km/h 91% 0 mm 0 W/m2
00:39 3.9 °C 3.1 °C 1024.9 hPa Calm   3.2 km/h 91% 0 mm 0 W/m2
00:44 3.8 °C 2.9 °C 1024.9 hPa NW 0.8 km/h 3.2 km/h 91% 0 mm 0 W/m2
00:49 3.7 °C 2.9 °C 1024.9 hPa Calm   3.2 km/h 91% 0 mm 0 W/m2
00:54 3.6 °C 2.8 °C 1024.9 hPa Calm     91% 0 mm 0 W/m2
00:59 3.5 °C 2.7 °C 1024.9 hPa NW 1.3 km/h 3.2 km/h 91% 0 mm 0 W/m2
01:04 3.6 °C 2.9 °C 1024.9 hPa NW 0.6 km/h 3.2 km/h 91.8% 0 mm 0 W/m2
01:09 3.6 °C 2.8 °C 1024.9 hPa Calm     91.4% 0 mm 0 W/m2
01:14 3.4 °C 2.6 °C 1024.9 hPa Calm     91% 0 mm 0 W/m2
01:19 3.3 °C 2.6 °C 1024.9 hPa Calm     91.6% 0 mm 0 W/m2
01:24 3.3 °C 2.6 °C 1025.3 hPa NW 0.6 km/h 3.2 km/h 91.8% 0 mm 0 W/m2
01:29 3.3 °C 2.6 °C 1025.3 hPa NW 2.6 km/h 4.8 km/h 91.8% 0 mm 0 W/m2
01:34 3.3 °C 2.6 °C 1024.9 hPa NW 0.3 km/h 4.8 km/h 92% 0 mm 0 W/m2
01:39 3.3 °C 2.6 °C 1024.9 hPa Calm   4.8 km/h 92% 0 mm 0 W/m2
01:44 3.3 °C 2.6 °C 1025.3 hPa Calm     92% 0 mm 0 W/m2
01:49 3.2 °C 2.5 °C 1024.9 hPa Calm     92% 0 mm 0 W/m2
01:54 3.1 °C 2.4 °C 1025.3 hPa Calm     92% 0 mm 0 W/m2
01:59 3.1 °C 2.4 °C 1025.3 hPa Calm     92% 0 mm 0 W/m2
02:04 3.1 °C 2.4 °C 1025.3 hPa Calm     92% 0 mm 0 W/m2
02:09 3 °C 2.3 °C 1025.3 hPa NW 0.6 km/h 3.2 km/h 92% 0 mm 0 W/m2
02:14 2.9 °C 2.2 °C 1024.9 hPa NW 3.2 km/h 4.8 km/h 92% 0 mm 0 W/m2
02:19 3.1 °C 2.4 °C 1024.9 hPa NW 2.9 km/h 6.4 km/h 92% 0 mm 0 W/m2
02:24 3.2 °C 2.6 °C 1024.9 hPa NW 4.8 km/h 8 km/h 92% 0 mm 0 W/m2
02:29 3.6 °C 2.9 °C 1024.9 hPa NW 4.5 km/h 8 km/h 92.2% 0 mm 0 W/m2
02:34 3.8 °C 3.2 °C 1024.9 hPa NW 3.1 km/h 9.7 km/h 92.4% 0 mm 0 W/m2
02:39 3.8 °C 3.2 °C 1024.9 hPa NW 0.6 km/h 3.2 km/h 92.6% 0 mm 0 W/m2
02:44 3.6 °C 3 °C 1024.9 hPa Calm     92.6% 0 mm 0 W/m2
02:49 3.4 °C 2.7 °C 1024.9 hPa NW 1.9 km/h 3.2 km/h 92% 0 mm 0 W/m2
02:54 3.3 °C 2.7 °C 1024.9 hPa NW 1.3 km/h 3.2 km/h 92% 0 mm 0 W/m2
02:59 3.3 °C 2.7 °C 1024.9 hPa Calm   1.6 km/h 92.2% 0 mm 0 W/m2
03:04 3.2 °C 2.7 °C 1024.9 hPa NW 1.3 km/h 3.2 km/h 93% 0 mm 0 W/m2
03:09 3.2 °C 2.6 °C 1024.6 hPa NW 0.6 km/h 3.2 km/h 92.8% 0 mm 0 W/m2
03:14 3.1 °C 2.4 °C 1024.6 hPa Calm     92% 0 mm 0 W/m2
03:19 3.1 °C 2.5 °C 1024.6 hPa Calm     92.4% 0 mm 0 W/m2
03:24 3 °C 2.5 °C 1024.6 hPa Calm   1.6 km/h 92.8% 0 mm 0 W/m2
03:29 2.9 °C 2.4 °C 1024.6 hPa Calm   1.6 km/h 93% 0 mm 0 W/m2
03:34 2.9 °C 2.4 °C 1024.6 hPa Calm     93% 0 mm 0 W/m2
03:39 2.8 °C 2.3 °C 1024.6 hPa Calm     93% 0 mm 0 W/m2
03:44 2.8 °C 2.3 °C 1024.6 hPa NW 0.8 km/h 3.2 km/h 93% 0 mm 0 W/m2
03:49 2.8 °C 2.3 °C 1024.6 hPa NW 2.6 km/h 3.2 km/h 93% 0 mm 0 W/m2
03:54 2.9 °C 2.4 °C 1024.6 hPa NW 0.6 km/h 3.2 km/h 93% 0 mm 0 W/m2
03:59 2.8 °C 2.3 °C 1024.6 hPa Calm   3.2 km/h 93% 0 mm 0 W/m2
04:04 2.7 °C 2.2 °C 1024.6 hPa Calm   3.2 km/h 93% 0 mm 0 W/m2
04:09 2.7 °C 2.2 °C 1024.6 hPa Calm     93% 0 mm 0 W/m2
04:14 2.7 °C 2.2 °C 1024.9 hPa Calm     93% 0 mm 0 W/m2
04:19 2.7 °C 2.2 °C 1024.9 hPa Calm     93% 0 mm 0 W/m2
04:24 2.6 °C 2.1 °C 1024.9 hPa Calm     93% 0 mm 0 W/m2
04:29 2.6 °C 2.1 °C 1024.6 hPa Calm     93% 0 mm 0 W/m2
04:34 2.4 °C 1.9 °C 1024.9 hPa Calm     93% 0 mm 0 W/m2
04:39 2.4 °C 1.9 °C 1024.6 hPa Calm     93% 0 mm 0 W/m2
04:44 2.4 °C 1.9 °C 1024.6 hPa Calm     93% 0 mm 0 W/m2
04:49 2.4 °C 1.9 °C 1024.6 hPa Calm     93% 0 mm 0 W/m2
04:54 2.4 °C 1.9 °C 1024.6 hPa Calm     93% 0 mm 0 W/m2
04:59 2.3 °C 1.8 °C 1024.6 hPa Calm     93% 0 mm 0 W/m2
05:04 2.3 °C 1.8 °C 1024.6 hPa Calm     93% 0 mm 0 W/m2
05:09 2.4 °C 1.9 °C 1024.6 hPa Calm     93% 0 mm 0 W/m2
05:14 2.6 °C 2.1 °C 1024.6 hPa Calm     93% 0 mm 0 W/m2
05:19 2.6 °C 2.1 °C 1024.6 hPa Calm   1.6 km/h 93% 0 mm 0 W/m2
05:24 2.6 °C 2.1 °C 1024.6 hPa Calm     93% 0 mm 0 W/m2
05:29 2.6 °C 2.1 °C 1024.6 hPa Calm     93% 0 mm 0 W/m2
05:34 2.6 °C 2.1 °C 1024.6 hPa Calm     93% 0 mm 0 W/m2
05:39 2.7 °C 2.2 °C 1024.6 hPa Calm     93% 0 mm 0 W/m2
05:44 2.7 °C 2.2 °C 1024.6 hPa Calm     93% 0 mm 0 W/m2
05:49 2.8 °C 2.3 °C 1024.3 hPa Calm     93% 0 mm 0 W/m2
05:54 2.9 °C 2.4 °C 1024.6 hPa Calm     93% 0 mm 0 W/m2
05:59 2.9 °C 2.4 °C 1024.6 hPa Calm     93% 0 mm 0 W/m2
06:04 2.8 °C 2.3 °C 1024.6 hPa NW 0.3 km/h 1.6 km/h 93% 0 mm 0 W/m2
06:09 2.8 °C 2.3 °C 1024.3 hPa Calm     93% 0 mm 0 W/m2
06:14 2.8 °C 2.3 °C 1024.3 hPa Calm     93% 0 mm 0 W/m2
06:19 2.8 °C 2.3 °C 1024.3 hPa Calm     93% 0 mm 0 W/m2
06:24 2.7 °C 2.3 °C 1024.3 hPa Calm     93.8% 0 mm 0 W/m2
06:29 2.7 °C 2.3 °C 1024.3 hPa Calm     94% 0 mm 0 W/m2
06:34 2.7 °C 2.3 °C 1024.3 hPa Calm     94% 0 mm 0 W/m2
06:39 2.7 °C 2.3 °C 1024.3 hPa Calm     93.8% 0 mm 0 W/m2
06:44 2.7 °C 2.3 °C 1024.3 hPa Calm     94% 0 mm 0 W/m2
06:49 2.7 °C 2.3 °C 1024.3 hPa Calm   1.6 km/h 94% 0 mm 0 W/m2
06:54 2.8 °C 2.4 °C 1024.6 hPa Calm     94% 0 mm 0 W/m2
06:59 2.9 °C 2.5 °C 1024.6 hPa Calm     94% 0 mm 0 W/m2
07:04 3 °C 2.6 °C 1024.6 hPa Calm     94% 0 mm 0 W/m2
07:09 3.1 °C 2.7 °C 1024.3 hPa Calm   1.6 km/h 94% 0 mm 0 W/m2
07:14 3.2 °C 2.8 °C 1024.6 hPa Calm     94% 0 mm 9 W/m2
07:19 3.4 °C 3 °C 1024.6 hPa Calm     94% 0 mm 7 W/m2
07:24 3.4 °C 3.1 °C 1024.6 hPa Calm     94% 0 mm 7 W/m2
07:29 3.7 °C 3.3 °C 1024.6 hPa Calm     94% 0 mm 9 W/m2
07:34 3.6 °C 3.2 °C 1024.6 hPa Calm     94% 0 mm 12 W/m2
07:39 3.7 °C 3.3 °C 1024.9 hPa Calm     94% 0 mm 14 W/m2
07:44 3.8 °C 3.4 °C 1024.9 hPa Calm     94% 0 mm 14 W/m2
07:49 3.8 °C 3.3 °C 1024.9 hPa NW 1.3 km/h 3.2 km/h 94% 0 mm 12 W/m2
07:54 3.8 °C 3.4 °C 1024.9 hPa NW 0.3 km/h 3.2 km/h 94% 0 mm 11 W/m2
07:59 4.1 °C 3.7 °C 1024.9 hPa Calm     94% 0 mm 12 W/m2
08:04 4.1 °C 3.7 °C 1024.9 hPa Calm     94% 0 mm 14 W/m2
08:09 4.2 °C 3.7 °C 1024.9 hPa Calm     94% 0 mm 19 W/m2
08:14 4.6 °C 4.2 °C 1024.9 hPa Calm     94% 0 mm 21 W/m2
08:19 4.9 °C 4.5 °C 1024.9 hPa Calm     94% 0 mm 23 W/m2
08:24 5.3 °C 4.9 °C 1024.9 hPa Calm     94% 0 mm 37 W/m2
08:29 5.4 °C 5.1 °C 1024.9 hPa Calm   1.6 km/h 94% 0 mm 58 W/m2
08:34 5.3 °C 4.9 °C 1024.9 hPa Calm   1.6 km/h 94% 0 mm 79 W/m2
08:39 5.3 °C 4.8 °C 1024.9 hPa Calm     94% 0 mm 84 W/m2
08:44 5.3 °C 4.9 °C 1024.9 hPa Calm     94% 0 mm 84 W/m2
08:49 5.3 °C 4.9 °C 1024.9 hPa Calm   1.6 km/h 94% 0 mm 74 W/m2
08:54 5.6 °C 5.2 °C 1024.6 hPa Calm   1.6 km/h 94% 0 mm 46 W/m2
08:59 5.8 °C 5.4 °C 1024.6 hPa Calm     94% 0 mm 37 W/m2
09:04 6.1 °C 5.7 °C 1024.6 hPa Calm     94% 0 mm 33 W/m2
09:09 6.3 °C 5.9 °C 1024.6 hPa Calm     94% 0 mm 53 W/m2
09:14 6.4 °C 6 °C 1024.6 hPa Calm     94% 0 mm 63 W/m2
09:19 6.3 °C 5.9 °C 1024.6 hPa Calm     94% 0 mm 69 W/m2
09:24 6.5 °C 6.1 °C 1024.6 hPa Calm     94% 0 mm 81 W/m2
09:29 6.5 °C 6.1 °C 1024.6 hPa Calm     94% 0 mm 88 W/m2
09:34 6.6 °C 6.2 °C 1024.6 hPa Calm     94% 0 mm 97 W/m2
09:39 6.6 °C 6.1 °C 1024.6 hPa Calm     93.2% 0 mm 116 W/m2
09:44 6.8 °C 6.2 °C 1024.6 hPa Calm     93.4% 0 mm 148 W/m2
09:49 7.2 °C 6.7 °C 1024.6 hPa Calm     93.6% 0 mm 148 W/m2
09:54 7.5 °C 7 °C 1024.6 hPa Calm     93.4% 0 mm 132 W/m2
09:59 7.6 °C 7 °C 1024.6 hPa Calm     93% 0 mm 114 W/m2
10:04 7.7 °C 7.1 °C 1024.6 hPa Calm     93% 0 mm 107 W/m2
10:09 7.9 °C 7.3 °C 1024.6 hPa Calm     93% 0 mm 107 W/m2
10:14 8.2 °C 7.6 °C 1024.6 hPa Calm     93% 0 mm 104 W/m2
10:19 8.4 °C 7.8 °C 1024.6 hPa Calm   1.6 km/h 93% 0 mm 105 W/m2
10:24 8.8 °C 8.2 °C 1024.6 hPa Calm     93% 0 mm 111 W/m2
10:29 9 °C 8.4 °C 1024.6 hPa Calm     93% 0 mm 111 W/m2
10:34 9.2 °C 8.5 °C 1024.6 hPa Calm     92.4% 0 mm 113 W/m2
10:39 9.2 °C 8.6 °C 1024.6 hPa NW 0.3 km/h 1.6 km/h 92% 0 mm 114 W/m2
10:44 9.2 °C 8.5 °C 1024.3 hPa Calm   1.6 km/h 92% 0 mm 113 W/m2
10:49 9.2 °C 8.4 °C 1024.3 hPa Calm     92% 0 mm 109 W/m2
10:54 9.2 °C 8.5 °C 1024.3 hPa Calm     91.8% 0 mm 104 W/m2
10:59 9.3 °C 8.4 °C 1024.3 hPa Calm     91% 0 mm 105 W/m2
11:04 9.3 °C 8.4 °C 1024.3 hPa Calm     91% 0 mm 105 W/m2
11:09 9.4 °C 8.5 °C 1024.3 hPa Calm     91% 0 mm 97 W/m2
11:14 9.6 °C 8.7 °C 1024.3 hPa Calm     91% 0 mm 95 W/m2
11:19 9.7 °C 8.8 °C 1024.3 hPa Calm     91% 0 mm 93 W/m2
11:24 9.8 °C 8.7 °C 1024.3 hPa Calm     90% 0 mm 93 W/m2
11:29 9.9 °C 8.8 °C 1024.6 hPa Calm     90% 0 mm 98 W/m2
11:34 10.1 °C 8.9 °C 1024.3 hPa Calm     90% 0 mm 105 W/m2
11:39 10.1 °C 9 °C 1024.3 hPa Calm     89.6% 0 mm 107 W/m2
11:44 10.2 °C 9.1 °C 1024.3 hPa Calm     89% 0 mm 104 W/m2
11:49 10.3 °C 9.1 °C 1024.3 hPa NW 1.3 km/h 6.4 km/h 89% 0 mm 121 W/m2
11:54 10.3 °C 9.2 °C 1024.3 hPa NW 1.3 km/h 6.4 km/h 89% 0 mm 134 W/m2
11:59 10.6 °C 9.2 °C 1024.3 hPa NW 3.2 km/h 9.7 km/h 88.3% 0 mm 141 W/m2
12:04 10.6 °C 9.2 °C 1024.3 hPa Calm   6.4 km/h 88% 0 mm 155 W/m2
12:09 10.7 °C 9.3 °C 1024.3 hPa NW 1.3 km/h 4.8 km/h 88% 0 mm 155 W/m2
12:14 10.8 °C 9.4 °C 1024.3 hPa NW 2.3 km/h 6.4 km/h 88% 0 mm 141 W/m2
12:19 10.8 °C 9.3 °C 1024.3 hPa NW 2.9 km/h 8 km/h 87% 0 mm 135 W/m2
12:24 11 °C 9.4 °C 1023.9 hPa NW 0.6 km/h 4.8 km/h 87% 0 mm 142 W/m2
12:29 11.1 °C 9.5 °C 1023.9 hPa NW 1 km/h 6.4 km/h 87% 0 mm 156 W/m2
12:34 11.3 °C 9.7 °C 1023.9 hPa NW 0.3 km/h 4.8 km/h 87% 0 mm 171 W/m2
12:39 11.4 °C 9.8 °C 1023.9 hPa NW 1.9 km/h 4.8 km/h 87% 0 mm 192 W/m2
12:43 11.6 °C 10 °C 1023.9 hPa NW 3.5 km/h 8 km/h 87% 0 mm 169 W/m2
12:49 11.7 °C 10.1 °C 1023.9 hPa West 2.7 km/h 14.5 km/h 87% 0 mm 171 W/m2
12:54 11.7 °C 10.1 °C 1023.6 hPa SW 4 km/h 11.3 km/h 87% 0 mm 197 W/m2
12:59 11.8 °C 10.2 °C 1023.6 hPa SW 5.3 km/h 11.3 km/h 87% 0 mm 223 W/m2
13:04 11.9 °C 10.3 °C 1023.6 hPa SW 5 km/h 8 km/h 87% 0 mm 146 W/m2
13:09 12 °C 10.4 °C 1023.6 hPa SW 2.4 km/h 8 km/h 87% 0 mm 120 W/m2
13:14 12 °C 10.4 °C 1023.6 hPa SW 4.5 km/h 9.7 km/h 87% 0 mm 95 W/m2
13:19 11.9 °C 10.3 °C 1023.6 hPa SW 4.5 km/h 9.7 km/h 87% 0 mm 84 W/m2
13:24 11.8 °C 10.3 °C 1023.6 hPa SW 4.7 km/h 9.7 km/h 87% 0 mm 90 W/m2
13:29 11.8 °C 10.2 °C 1023.6 hPa SW 5.8 km/h 12.9 km/h 87% 0 mm 86 W/m2
13:34 11.9 °C 10.3 °C 1023.2 hPa SW 3.2 km/h 8 km/h 87% 0 mm 102 W/m2
13:39 11.9 °C 10.4 °C 1023.2 hPa SW 4.5 km/h 9.7 km/h 87.4% 0 mm 113 W/m2
13:44 11.9 °C 10.4 °C 1023.2 hPa SW 6.8 km/h 11.3 km/h 87.8% 0 mm 118 W/m2
13:49 11.9 °C 10.5 °C 1023.2 hPa SW 6 km/h 11.3 km/h 88% 0 mm 111 W/m2
13:54 11.9 °C 10.5 °C 1023.2 hPa SW 6.4 km/h 12.9 km/h 88% 0 mm 88 W/m2
13:59 11.9 °C 10.5 °C 1023.2 hPa SW 4.7 km/h 12.9 km/h 88% 0 mm 74 W/m2
14:04 11.9 °C 10.5 °C 1023.2 hPa SW 4.3 km/h 11.3 km/h 88% 0 mm 70 W/m2
14:08 11.9 °C 10.5 °C 1023.2 hPa SW 5.6 km/h 11.3 km/h 88% 0 mm 77 W/m2
14:14 11.9 °C 10.5 °C 1023.2 hPa SW 3.2 km/h 6.4 km/h 88% 0 mm 81 W/m2
14:19 12 °C 10.6 °C 1023.2 hPa SW 6 km/h 12.9 km/h 88% 0 mm 79 W/m2
14:24 12.1 °C 10.7 °C 1023.2 hPa SW 3.4 km/h 8 km/h 88% 0 mm 70 W/m2
14:29 12.1 °C 10.7 °C 1023.2 hPa SW 5.1 km/h 8 km/h 88% 0 mm 83 W/m2
14:34 12.1 °C 10.7 °C 1023.2 hPa SW 2.7 km/h 9.7 km/h 88% 0 mm 79 W/m2
14:39 12.1 °C 10.7 °C 1023.2 hPa SW 2.7 km/h 6.4 km/h 88% 0 mm 62 W/m2
14:44 12.1 °C 10.7 °C 1023.2 hPa SW 2.3 km/h 6.4 km/h 88% 0 mm 47 W/m2
14:49 12.2 °C 10.8 °C 1023.2 hPa SW 4.7 km/h 9.7 km/h 88.8% 0 mm 39 W/m2
14:54 12.2 °C 10.8 °C 1023.2 hPa SW 5.1 km/h 9.7 km/h 89% 0 mm 37 W/m2
14:59 12.1 °C 10.8 °C 1023.2 hPa SW 5.3 km/h 11.3 km/h 89% 0 mm 32 W/m2
15:04 12 °C 10.9 °C 1023.2 hPa SW 4 km/h 8 km/h 89.8% 0 mm 32 W/m2
15:09 11.9 °C 10.8 °C 1023.6 hPa SW 0.6 km/h 4.8 km/h 90% 0 mm 28 W/m2
15:14 11.9 °C 10.8 °C 1023.6 hPa SW 1 km/h 8 km/h 90% 0 mm 25 W/m2
15:19 11.9 °C 10.8 °C 1023.6 hPa SW 1 km/h 6.4 km/h 90% 0 mm 26 W/m2
15:23 11.9 °C 10.8 °C 1023.6 hPa Calm   6.4 km/h 90% 0 mm 30 W/m2
15:29 11.9 °C 10.9 °C 1023.6 hPa WSW 1 km/h 3.2 km/h 90.6% 0 mm 32 W/m2
15:34 11.9 °C 11 °C 1023.2 hPa Calm   3.2 km/h 91% 0 mm 25 W/m2
15:39 11.9 °C 11 °C 1023.2 hPa Calm     91% 0 mm 18 W/m2
15:44 11.9 °C 11 °C 1023.2 hPa Calm     91% 0 mm 12 W/m2
15:49 11.9 °C 11 °C 1023.2 hPa Calm     91% 0 mm 11 W/m2
15:54 11.9 °C 11 °C 1023.2 hPa Calm   3.2 km/h 91% 0 mm 11 W/m2
15:59 11.9 °C 11 °C 1023.2 hPa WSW 0.3 km/h 3.2 km/h 91% 0 mm 9 W/m2
16:04 11.9 °C 11 °C 1023.2 hPa WSW 0.3 km/h 4.8 km/h 91% 0 mm 9 W/m2
16:09 11.9 °C 11 °C 1023.2 hPa WSW 2.1 km/h 4.8 km/h 91% 0 mm 9 W/m2
16:14 11.9 °C 11 °C 1023.2 hPa WSW 1 km/h 4.8 km/h 91.2% 0 mm 5 W/m2
16:19 11.9 °C 11.2 °C 1023.2 hPa WSW 0.6 km/h 4.8 km/h 92% 0 mm 0 W/m2
16:24 12 °C 11.2 °C 1023.2 hPa WSW 1.8 km/h 6.4 km/h 92% 0 mm 0 W/m2
16:29 12 °C 11.2 °C 1023.2 hPa WSW 1.1 km/h 3.2 km/h 92% 0 mm 0 W/m2
16:34 12 °C 11.2 °C 1023.2 hPa WSW 1.9 km/h 4.8 km/h 92% 0 mm 0 W/m2
16:39 12 °C 11.2 °C 1023.2 hPa Calm   3.2 km/h 92% 0 mm 0 W/m2
16:44 12 °C 11.2 °C 1023.2 hPa Calm   1.6 km/h 92% 0 mm 0 W/m2
16:49 12 °C 11.2 °C 1023.2 hPa Calm   1.6 km/h 92% 0 mm 0 W/m2
16:54 12 °C 11.2 °C 1023.2 hPa Calm   1.6 km/h 92% 0 mm 0 W/m2
16:59 12 °C 11.2 °C 1023.2 hPa Calm     92% 0 mm 0 W/m2
17:04 12 °C 11.2 °C 1023.2 hPa WSW 0.6 km/h 3.2 km/h 92% 0 mm 0 W/m2
17:08 12 °C 11.2 °C 1023.2 hPa WSW 0.3 km/h 3.2 km/h 92% 0 mm 0 W/m2
17:14 12 °C 11.2 °C 1023.2 hPa WSW 0.3 km/h 3.2 km/h 92% 0 mm 0 W/m2
17:19 11.9 °C 11.2 °C 1023.6 hPa Calm   1.6 km/h 92% 0 mm 0 W/m2
17:24 12 °C 11.2 °C 1023.6 hPa Calm     92% 0 mm 0 W/m2
17:29 12 °C 11.2 °C 1023.6 hPa Calm     92% 0 mm 0 W/m2
17:34 12 °C 11.2 °C 1023.6 hPa Calm     92% 0 mm 0 W/m2
17:39 12 °C 11.2 °C 1023.6 hPa Calm     92% 0 mm 0 W/m2
17:44 11.9 °C 11.1 °C 1023.6 hPa Calm     92% 0 mm 0 W/m2
17:49 11.9 °C 11.1 °C 1023.6 hPa Calm     92% 0 mm 0 W/m2
17:54 11.9 °C 11.1 °C 1023.6 hPa Calm     92% 0 mm 0 W/m2
17:59 11.9 °C 11.1 °C 1023.6 hPa Calm     92% 0 mm 0 W/m2
18:04 11.9 °C 11.1 °C 1023.6 hPa Calm     92% 0 mm 0 W/m2
18:09 11.9 °C 11.1 °C 1023.6 hPa Calm     92% 0 mm 0 W/m2
18:14 11.9 °C 11.1 °C 1023.6 hPa WSW 0.3 km/h 1.6 km/h 92% 0 mm 0 W/m2
18:19 11.9 °C 11.1 °C 1023.6 hPa Calm   1.6 km/h 92% 0 mm 0 W/m2
18:24 11.9 °C 11.1 °C 1023.6 hPa WSW 0.3 km/h 1.6 km/h 92% 0 mm 0 W/m2
18:29 11.9 °C 11.1 °C 1023.6 hPa Calm     92% 0 mm 0 W/m2
18:34 11.9 °C 11.1 °C 1023.6 hPa WSW 0.3 km/h 3.2 km/h 92% 0 mm 0 W/m2
18:39 11.9 °C 11.1 °C 1023.6 hPa Calm   1.6 km/h 92% 0 mm 0 W/m2
18:44 11.9 °C 11.1 °C 1023.6 hPa Calm   1.6 km/h 92% 0 mm 0 W/m2
18:49 11.8 °C 11.1 °C 1023.6 hPa Calm     92% 0 mm 0 W/m2
18:54 11.8 °C 11 °C 1023.6 hPa Calm     92% 0 mm 0 W/m2
18:59 11.8 °C 11.1 °C 1023.6 hPa Calm   1.6 km/h 92.4% 0 mm 0 W/m2
19:04 11.9 °C 11.3 °C 1023.6 hPa Calm     93% 0 mm 0 W/m2
19:09 11.9 °C 11.3 °C 1023.6 hPa Calm     93% 0 mm 0 W/m2
19:14 11.9 °C 11.3 °C 1023.6 hPa Calm     93% 0 mm 0 W/m2
19:19 11.9 °C 11.3 °C 1023.6 hPa Calm     93% 0 mm 0 W/m2
19:24 11.8 °C 11.3 °C 1023.6 hPa Calm     93% 0 mm 0 W/m2
19:29 11.8 °C 11.2 °C 1023.6 hPa Calm   1.6 km/h 93% 0 mm 0 W/m2
19:34 11.8 °C 11.2 °C 1023.6 hPa Calm   1.6 km/h 93% 0 mm 0 W/m2
19:39 11.8 °C 11.2 °C 1023.6 hPa Calm     93% 0 mm 0 W/m2
19:44 11.8 °C 11.2 °C 1023.6 hPa Calm     93% 0 mm 0 W/m2
19:49 11.9 °C 11.3 °C 1023.6 hPa WSW 0.3 km/h 3.2 km/h 93% 0 mm 0 W/m2
19:54 11.9 °C 11.3 °C 1023.6 hPa Calm   3.2 km/h 93% 0 mm 0 W/m2
19:59 11.9 °C 11.3 °C 1023.6 hPa Calm     93% 0 mm 0 W/m2
20:04 11.9 °C 11.3 °C 1023.2 hPa WSW 0.3 km/h 3.2 km/h 93% 0 mm 0 W/m2
20:09 11.9 °C 11.3 °C 1023.6 hPa WSW 0.6 km/h 3.2 km/h 93% 0 mm 0 W/m2
20:14 11.9 °C 11.3 °C 1023.6 hPa WSW 1 km/h 4.8 km/h 93% 0 mm 0 W/m2
20:19 11.9 °C 11.3 °C 1023.6 hPa WSW 1.4 km/h 6.4 km/h 93% 0 mm 0 W/m2
20:24 12 °C 11.4 °C 1023.6 hPa WSW 1.3 km/h 6.4 km/h 93% 0 mm 0 W/m2
20:29 12.1 °C 11.5 °C 1023.6 hPa WSW 5.8 km/h 9.7 km/h 93% 0 mm 0 W/m2
20:34 12.1 °C 11.5 °C 1023.6 hPa WSW 2.6 km/h 8 km/h 93% 0 mm 0 W/m2
20:39 12.1 °C 11.5 °C 1023.6 hPa WSW 3.9 km/h 8 km/h 93% 0 mm 0 W/m2
20:43 12.1 °C 11.5 °C 1023.6 hPa WSW 2.7 km/h 9.7 km/h 93% 0 mm 0 W/m2
20:49 12.1 °C 11.5 °C 1023.6 hPa WSW 4 km/h 11.3 km/h 93% 0 mm 0 W/m2
20:54 12.1 °C 11.5 °C 1023.6 hPa WSW 4.5 km/h 11.3 km/h 93% 0 mm 0 W/m2
20:59 12.1 °C 11.5 °C 1023.6 hPa WSW 1.9 km/h 8 km/h 93% 0 mm 0 W/m2
21:04 12.1 °C 11.5 °C 1023.6 hPa WSW 4 km/h 11.3 km/h 93% 0 mm 0 W/m2
21:09 12.1 °C 11.5 °C 1023.6 hPa WSW 3.4 km/h 11.3 km/h 93% 0 mm 0 W/m2
21:14 12.1 °C 11.5 °C 1023.6 hPa WSW 2.6 km/h 4.8 km/h 93% 0 mm 0 W/m2
21:19 12 °C 11.4 °C 1023.6 hPa WSW 2.1 km/h 8 km/h 93% 0 mm 0 W/m2
21:24 12.1 °C 11.4 °C 1023.6 hPa WSW 6.1 km/h 9.7 km/h 93% 0 mm 0 W/m2
21:29 12.1 °C 11.4 °C 1023.6 hPa WSW 2.6 km/h 8 km/h 93% 0 mm 0 W/m2
21:34 12.1 °C 11.4 °C 1023.6 hPa WSW 2.7 km/h 6.4 km/h 93% 0 mm 0 W/m2
21:39 12.1 °C 11.4 °C 1023.6 hPa WSW 2.3 km/h 6.4 km/h 93% 0 mm 0 W/m2
21:44 12 °C 11.4 °C 1023.6 hPa WSW 3.4 km/h 6.4 km/h 93% 0 mm 0 W/m2
21:49 12 °C 11.4 °C 1023.6 hPa WSW 2.7 km/h 8 km/h 93% 0 mm 0 W/m2
21:54 12 °C 11.4 °C 1023.6 hPa WSW 4.3 km/h 8 km/h 93% 0 mm 0 W/m2
21:58 12 °C 11.4 °C 1023.6 hPa WSW 5.5 km/h 8 km/h 93% 0 mm 0 W/m2
22:04 12 °C 11.4 °C 1023.6 hPa WSW 5.1 km/h 8 km/h 93% 0 mm 0 W/m2
22:09 12 °C 11.4 °C 1023.6 hPa WSW 3.7 km/h 6.4 km/h 93% 0 mm 0 W/m2
22:14 12 °C 11.4 °C 1023.6 hPa WSW 3.2 km/h 6.4 km/h 93% 0 mm 0 W/m2
22:19 12 °C 11.4 °C 1023.6 hPa WSW 0.6 km/h 4.8 km/h 93% 0 mm 0 W/m2
22:24 12 °C 11.4 °C 1023.6 hPa WSW 0.6 km/h 4.8 km/h 93% 0 mm 0 W/m2
22:29 12 °C 11.4 °C 1023.6 hPa WSW 1.6 km/h 4.8 km/h 93% 0 mm 0 W/m2
22:34 11.9 °C 11.3 °C 1023.6 hPa WSW 0.3 km/h 3.2 km/h 92.8% 0 mm 0 W/m2
22:39 11.9 °C 11.2 °C 1023.6 hPa WSW 0.6 km/h 6.4 km/h 92.4% 0 mm 0 W/m2
22:44 11.8 °C 11 °C 1023.6 hPa SW 1.9 km/h 6.4 km/h 92% 0 mm 0 W/m2
22:48 11.8 °C 11 °C 1023.6 hPa WSW 0.3 km/h 3.2 km/h 92% 0 mm 0 W/m2
22:54 11.7 °C 11.1 °C 1023.6 hPa WSW 0.3 km/h 4.8 km/h 92.6% 0 mm 0 W/m2
22:59 11.7 °C 11.1 °C 1023.6 hPa WSW 0.3 km/h 3.2 km/h 92.8% 0 mm 0 W/m2
23:04 11.7 °C 11 °C 1023.6 hPa WSW 1.3 km/h 3.2 km/h 92.4% 0 mm 0 W/m2
23:09 11.6 °C 10.8 °C 1023.6 hPa WSW 0.3 km/h 4.8 km/h 92% 0 mm 0 W/m2
23:14 11.6 °C 10.8 °C 1023.6 hPa WSW 0.6 km/h 3.2 km/h 92% 0 mm 0 W/m2
23:19 11.6 °C 10.8 °C 1023.6 hPa Calm   1.6 km/h 92% 0 mm 0 W/m2
23:24 11.5 °C 10.7 °C 1023.6 hPa WSW 0.3 km/h 6.4 km/h 92% 0 mm 0 W/m2
23:29 11.4 °C 10.6 °C 1023.6 hPa WSW 1 km/h 3.2 km/h 92% 0 mm 0 W/m2
23:34 11.3 °C 10.6 °C 1023.6 hPa WSW 1.1 km/h 4.8 km/h 92% 0 mm 0 W/m2
23:39 11.3 °C 10.5 °C 1023.6 hPa WSW 0.6 km/h 4.8 km/h 92% 0 mm 0 W/m2
23:44 11.2 °C 10.4 °C 1023.6 hPa WSW 1 km/h 4.8 km/h 92% 0 mm 0 W/m2
23:49 11.2 °C 10.4 °C 1023.6 hPa Calm     92% 0 mm 0 W/m2
23:54 11.1 °C 10.3 °C 1023.6 hPa WSW 2.1 km/h 6.4 km/h 92% 0 mm 0 W/m2
23:59 11.1 °C 10.3 °C 1023.6 hPa WSW 1.9 km/h 6.4 km/h 92% 0 mm 0 W/m2
Bath Spa Weather
Compliments of Weather Underground - 2 mb